Time;durP1;ratioP1;P1;durP2;ratioP2;P2;SDS_P1;SDS_P2;PMS_P1;PMS_P2;Temp;Humidity;BMP_temperature;BMP_pressure;BME280_temperature;BME280_humidity;BME280_pressure;Samples;Min_cycle;Max_cycle;Signal;HPM_P1;HPM_P2
2022/07/30 00:00:30;;;;;;;7.03;6.22;;;;;;;15.70;100.00;95965.41;1029254;28;20037;-69
2022/07/30 00:01:00;;;;;;;7.43;6.28;;;;;;;15.69;100.00;95961.19;1026146;28;20015;-69
2022/07/30 00:01:32;;;;;;;9.00;6.00;;;;;;;15.64;100.00;95955.16;1025494;28;20777;-70
2022/07/30 00:02:03;;;;;;;6.75;6.03;;;;;;;15.67;100.00;95960.69;1026197;28;20025;-69
2022/07/30 00:02:33;;;;;;;9.30;6.38;;;;;;;15.65;100.00;95962.78;1026692;28;20027;-68
2022/07/30 00:03:04;;;;;;;6.60;5.97;;;;;;;15.63;100.00;95959.66;1029853;28;20113;-69
2022/07/30 00:03:34;;;;;;;9.43;7.15;;;;;;;15.64;100.00;95961.22;1030035;28;20104;-69
2022/07/30 00:04:05;;;;;;;6.68;6.07;;;;;;;15.58;100.00;95951.78;1029972;28;20487;-70
2022/07/30 00:04:35;;;;;;;6.38;5.78;;;;;;;15.63;100.00;95961.53;1030054;28;20030;-70
2022/07/30 00:05:06;;;;;;;7.68;6.78;;;;;;;15.61;100.00;95958.38;1025961;28;20050;-69
2022/07/30 00:05:37;;;;;;;8.98;6.38;;;;;;;15.57;100.00;95950.22;1022291;29;20046;-69
2022/07/30 00:06:07;;;;;;;7.30;6.45;;;;;;;15.61;100.00;95959.16;1022128;28;20800;-69
2022/07/30 00:06:38;;;;;;;7.68;6.97;;;;;;;15.59;100.00;95963.94;1026230;28;20030;-69
2022/07/30 00:07:09;;;;;;;9.43;6.25;;;;;;;15.59;100.00;95958.63;1030329;28;20480;-69
2022/07/30 00:07:39;;;;;;;7.75;6.95;;;;;;;15.58;100.00;95954.44;1030126;28;20097;-69
2022/07/30 00:08:10;;;;;;;8.48;6.53;;;;;;;15.56;100.00;95956.59;1029976;28;20029;-69
2022/07/30 00:08:40;;;;;;;7.95;6.35;;;;;;;15.56;100.00;95956.59;1030283;28;20026;-69
2022/07/30 00:09:11;;;;;;;7.18;6.43;;;;;;;15.56;100.00;95961.88;1026117;28;20023;-70
2022/07/30 00:09:41;;;;;;;7.22;6.53;;;;;;;15.54;100.00;95959.53;1030222;28;20162;-71
2022/07/30 00:10:12;;;;;;;7.50;6.80;;;;;;;15.53;100.00;95952.66;1025967;28;20058;-69
2022/07/30 00:10:42;;;;;;;7.68;6.95;;;;;;;15.54;100.00;95956.88;1026327;28;20027;-69
2022/07/30 00:11:14;;;;;;;8.32;7.10;;;;;;;15.55;100.00;95957.66;1025570;28;20023;-68
2022/07/30 00:11:44;;;;;;;8.30;7.50;;;;;;;15.53;100.00;95955.31;1026397;28;20105;-70
2022/07/30 00:12:15;;;;;;;7.80;7.10;;;;;;;15.53;100.00;95954.53;1030178;28;20451;-70
2022/07/30 00:12:45;;;;;;;10.27;7.38;;;;;;;15.54;100.00;95961.38;1030239;28;20149;-71
2022/07/30 00:13:16;;;;;;;8.48;7.32;;;;;;;15.48;100.00;95946.66;1033999;28;20017;-69
2022/07/30 00:13:47;;;;;;;9.85;7.00;;;;;;;15.52;100.00;95958.22;1026439;28;20018;-69
2022/07/30 00:14:17;;;;;;;7.40;6.45;;;;;;;15.54;100.00;95956.88;1025951;28;20027;-70
2022/07/30 00:14:48;;;;;;;7.97;7.15;;;;;;;15.53;100.00;95963.25;1025765;28;20190;-69
2022/07/30 00:15:21;;;;;;;10.63;7.10;;;;;;;15.52;100.00;95953.72;1022593;28;20596;-69
2022/07/30 00:15:51;;;;;;;10.27;8.13;;;;;;;15.53;100.00;95959.81;1026204;28;20033;-69
2022/07/30 00:16:22;;;;;;;7.68;6.93;;;;;;;15.52;100.00;95958.22;1027239;28;20022;-69
2022/07/30 00:16:52;;;;;;;10.82;7.07;;;;;;;15.52;100.00;95953.72;1030110;28;20033;-69
2022/07/30 00:17:23;;;;;;;8.23;7.18;;;;;;;15.53;100.00;95965.13;1030609;28;20030;-70
2022/07/30 00:17:53;;;;;;;8.05;6.80;;;;;;;15.52;100.00;95959.00;1034428;28;20022;-71
2022/07/30 00:18:24;;;;;;;9.23;7.35;;;;;;;15.53;100.00;95959.81;1029736;28;20904;-69
2022/07/30 00:18:54;;;;;;;7.68;6.82;;;;;;;15.49;100.00;95953.50;1030171;28;20084;-70
2022/07/30 00:19:25;;;;;;;11.50;7.25;;;;;;;15.53;100.00;95960.59;1025350;28;20050;-69
2022/07/30 00:19:55;;;;;;;7.88;7.05;;;;;;;15.52;100.00;95959.00;1025264;28;20081;-69
2022/07/30 00:20:26;;;;;;;8.25;7.07;;;;;;;15.46;100.00;95954.91;1024291;28;20078;-71
2022/07/30 00:20:56;;;;;;;8.20;7.15;;;;;;;15.52;100.00;95947.66;1022097;28;20034;-70
2022/07/30 00:21:27;;;;;;;7.95;7.25;;;;;;;15.51;100.00;95962.75;1025231;28;20788;-70
2022/07/30 00:21:57;;;;;;;8.40;7.47;;;;;;;15.50;100.00;95953.25;1026082;28;20026;-69
2022/07/30 00:22:29;;;;;;;7.68;6.88;;;;;;;15.50;100.00;95955.09;1022041;28;20042;-70
2022/07/30 00:23:02;;;;;;;8.30;7.20;;;;;;;15.49;100.00;95948.22;1026199;28;20484;-70
2022/07/30 00:23:33;;;;;;;10.93;7.50;;;;;;;15.48;100.00;95952.72;1026184;28;20031;-69
2022/07/30 00:24:04;;;;;;;7.53;6.68;;;;;;;15.47;100.00;95950.38;1022765;28;20763;-69
2022/07/30 00:24:34;;;;;;;8.13;7.25;;;;;;;15.33;100.00;95929.97;1026548;28;20034;-70
2022/07/30 00:25:05;;;;;;;6.85;6.05;;;;;;;15.47;100.00;95951.16;1030121;28;20077;-69
2022/07/30 00:25:36;;;;;;;10.35;7.32;;;;;;;15.48;100.00;95951.94;1026042;28;20019;-70
2022/07/30 00:26:06;;;;;;;7.72;6.10;;;;;;;15.44;100.00;95940.38;1030203;28;20050;-71
2022/07/30 00:26:37;;;;;;;7.72;5.50;;;;;;;15.46;100.00;95948.78;1021851;29;20038;-69
2022/07/30 00:27:07;;;;;;;8.32;7.15;;;;;;;15.45;100.00;95945.38;1018051;29;20050;-69
2022/07/30 00:27:38;;;;;;;8.07;5.95;;;;;;;15.36;100.00;95939.19;1018233;29;20030;-69
2022/07/30 00:28:09;;;;;;;8.43;6.65;;;;;;;15.46;100.00;95948.78;1018475;28;20024;-69
2022/07/30 00:28:39;;;;;;;10.32;6.50;;;;;;;15.45;100.00;95952.53;1021912;28;20122;-70
2022/07/30 00:29:09;;;;;;;10.05;6.68;;;;;;;15.44;100.00;95945.66;1022226;28;20024;-69
2022/07/30 00:29:40;;;;;;;8.00;6.50;;;;;;;15.45;100.00;95952.53;1022097;28;20050;-69
2022/07/30 00:30:11;;;;;;;8.93;6.65;;;;;;;15.41;100.00;95941.75;1026348;28;20105;-69
2022/07/30 00:30:41;;;;;;;7.20;6.50;;;;;;;15.39;100.00;95938.63;1025745;28;20023;-71
2022/07/30 00:31:12;;;;;;;9.35;6.60;;;;;;;15.44;100.00;95940.38;1025565;28;20066;-69
2022/07/30 00:31:42;;;;;;;8.75;6.32;;;;;;;15.44;100.00;95948.31;1026128;28;20046;-69
2022/07/30 00:32:13;;;;;;;7.07;6.38;;;;;;;15.42;100.00;95945.94;1026099;28;20142;-69
2022/07/30 00:32:43;;;;;;;8.00;6.03;;;;;;;15.42;100.00;95942.53;1026062;28;20031;-71
2022/07/30 00:33:14;;;;;;;8.23;5.60;;;;;;;15.41;100.00;95940.97;1029964;28;20073;-71
2022/07/30 00:33:44;;;;;;;7.55;6.15;;;;;;;15.44;100.00;95940.38;1030138;28;20100;-69
2022/07/30 00:34:15;;;;;;;8.32;6.05;;;;;;;15.42;100.00;95945.16;1030281;28;20053;-70
2022/07/30 00:34:45;;;;;;;13.05;6.57;;;;;;;15.41;100.00;95943.59;1030059;28;20703;-69
2022/07/30 00:35:15;;;;;;;8.27;6.68;;;;;;;15.40;100.00;95942.81;1029864;28;20018;-69
2022/07/30 00:35:46;;;;;;;8.55;5.72;;;;;;;15.39;100.00;95938.63;1025981;28;20718;-69
2022/07/30 00:36:17;;;;;;;6.18;5.50;;;;;;;15.35;100.00;95934.16;1026009;28;20114;-70
2022/07/30 00:36:47;;;;;;;6.53;5.88;;;;;;;15.39;100.00;95941.25;1022074;29;20833;-69
2022/07/30 00:37:18;;;;;;;6.65;5.50;;;;;;;15.40;100.00;95942.81;1020214;28;20035;-69
2022/07/30 00:37:48;;;;;;;8.07;5.47;;;;;;;15.42;100.00;95948.59;1021978;29;20082;-70
2022/07/30 00:38:19;;;;;;;5.82;5.22;;;;;;;15.42;100.00;95942.53;1021825;28;20105;-69
2022/07/30 00:38:49;;;;;;;8.82;6.22;;;;;;;15.36;100.00;95939.19;1025862;28;20064;-69
2022/07/30 00:39:20;;;;;;;6.35;5.38;;;;;;;15.41;100.00;95949.66;1021967;28;20090;-69
2022/07/30 00:39:50;;;;;;;8.15;6.47;;;;;;;15.41;100.00;95947.03;1026249;28;20030;-70
2022/07/30 00:40:20;;;;;;;8.30;6.40;;;;;;;15.25;100.00;95922.66;1026013;28;20047;-69
2022/07/30 00:40:51;;;;;;;7.30;6.60;;;;;;;15.35;100.00;95942.09;1030108;28;20569;-69
2022/07/30 00:41:22;;;;;;;8.50;6.75;;;;;;;15.39;100.00;95948.38;1029229;28;20022;-69
2022/07/30 00:41:54;;;;;;;8.70;6.10;;;;;;;15.38;100.00;95949.47;1026001;28;20015;-69
2022/07/30 00:42:42;;;;;;;7.65;6.43;;;;;;;15.38;100.00;95946.81;1025966;28;20113;-69
2022/07/30 00:43:16;;;;;;;8.00;5.97;;;;;;;15.36;100.00;95947.13;1028675;28;20535;-69
2022/07/30 00:43:47;;;;;;;7.55;6.60;;;;;;;15.37;100.00;95950.53;1029336;28;20035;-69
2022/07/30 00:44:17;;;;;;;6.68;5.88;;;;;;;15.36;100.00;95948.94;1027098;28;20058;-69
2022/07/30 00:44:47;;;;;;;8.30;6.43;;;;;;;15.35;100.00;95950.03;1026131;28;20102;-69
2022/07/30 00:45:18;;;;;;;10.30;7.00;;;;;;;15.35;100.00;95948.16;1026086;28;20030;-71
2022/07/30 00:45:48;;;;;;;9.88;6.88;;;;;;;15.33;100.00;95945.81;1034031;28;20467;-70
2022/07/30 00:46:19;;;;;;;7.43;6.38;;;;;;;15.32;100.00;95943.44;1029982;28;20029;-70
2022/07/30 00:46:50;;;;;;;8.40;5.82;;;;;;;15.26;100.00;95937.47;1030381;28;20575;-69
2022/07/30 00:47:20;;;;;;;8.52;6.38;;;;;;;15.32;100.00;95952.19;1025737;28;20019;-71
2022/07/30 00:47:51;;;;;;;7.25;6.55;;;;;;;15.31;100.00;95947.19;1026452;28;20015;-70
2022/07/30 00:48:21;;;;;;;9.13;7.07;;;;;;;15.28;100.00;95951.19;1026052;28;20027;-70
2022/07/30 00:48:52;;;;;;;7.85;5.82;;;;;;;15.30;100.00;95953.56;1026282;28;20027;-69
2022/07/30 00:49:22;;;;;;;8.70;5.57;;;;;;;15.30;100.00;95946.41;1025788;28;20036;-70
2022/07/30 00:49:52;;;;;;;6.88;5.65;;;;;;;15.29;100.00;95946.66;1030169;28;20140;-71
2022/07/30 00:50:23;;;;;;;7.13;5.53;;;;;;;15.26;100.00;95945.41;1030127;28;20014;-70
2022/07/30 00:50:53;;;;;;;6.85;6.13;;;;;;;15.28;100.00;95948.53;1030073;28;20026;-70
2022/07/30 00:51:24;;;;;;;9.93;7.45;;;;;;;15.26;100.00;95944.63;1025314;28;20754;-69
2022/07/30 00:51:54;;;;;;;8.20;5.95;;;;;;;15.24;100.00;95942.25;1026170;28;20098;-71
2022/07/30 00:52:25;;;;;;;7.00;6.05;;;;;;;15.22;100.00;95941.75;1025977;28;20030;-70
2022/07/30 00:52:55;;;;;;;8.43;7.00;;;;;;;15.24;100.00;95946.75;1026229;28;20022;-69
2022/07/30 00:53:26;;;;;;;10.15;6.10;;;;;;;15.22;100.00;95943.59;1026189;28;20031;-69
2022/07/30 00:53:56;;;;;;;7.15;6.00;;;;;;;15.21;100.00;95942.81;1022584;28;20067;-71
2022/07/30 00:54:27;;;;;;;9.00;6.75;;;;;;;15.20;100.00;95937.84;1029897;28;20018;-70
2022/07/30 00:54:58;;;;;;;7.45;6.05;;;;;;;15.19;100.00;95938.88;1030057;28;20038;-69
2022/07/30 00:55:28;;;;;;;10.48;6.20;;;;;;;15.18;100.00;95938.09;1029940;28;20011;-69
2022/07/30 00:55:59;;;;;;;6.88;6.18;;;;;;;15.17;100.00;95939.19;1010003;29;20044;-69
2022/07/30 00:56:29;;;;;;;6.50;5.88;;;;;;;15.17;100.00;95936.53;1010270;29;20487;-70
2022/07/30 00:56:59;;;;;;;8.65;5.63;;;;;;;15.17;100.00;95944.47;1018069;29;20020;-69
2022/07/30 00:57:30;;;;;;;8.73;5.43;;;;;;;15.17;100.00;95941.84;1018238;28;20032;-70
2022/07/30 00:58:00;;;;;;;6.55;5.88;;;;;;;15.12;100.00;95933.19;1030241;28;20836;-70
2022/07/30 00:58:31;;;;;;;6.57;5.55;;;;;;;15.11;100.00;95937.69;1030086;28;20088;-70
2022/07/30 00:59:01;;;;;;;13.20;6.28;;;;;;;15.15;100.00;95943.97;1026284;28;20617;-70
2022/07/30 00:59:33;;;;;;;6.65;5.70;;;;;;;15.15;100.00;95941.31;1028836;28;20034;-70
2022/07/30 01:00:06;;;;;;;7.00;6.15;;;;;;;15.12;100.00;95936.59;1029979;28;20031;-70
2022/07/30 01:00:36;;;;;;;8.60;6.20;;;;;;;15.05;100.00;95941.47;1030389;28;20058;-72
2022/07/30 01:01:07;;;;;;;7.40;6.00;;;;;;;15.09;100.00;95940.63;1029511;28;20097;-70
2022/07/30 01:01:37;;;;;;;7.13;5.82;;;;;;;15.08;100.00;95940.91;1030109;28;20034;-70
2022/07/30 01:02:08;;;;;;;6.60;5.95;;;;;;;15.07;100.00;95950.69;1026143;28;20067;-70
2022/07/30 01:02:38;;;;;;;7.28;5.60;;;;;;;15.05;100.00;95942.25;1025943;28;20030;-69
2022/07/30 01:03:09;;;;;;;6.10;5.50;;;;;;;15.06;100.00;95940.41;1027847;28;20076;-70
2022/07/30 01:03:39;;;;;;;6.72;5.60;;;;;;;15.05;100.00;95944.88;1025884;28;20022;-69
2022/07/30 01:04:13;;;;;;;9.50;5.90;;;;;;;15.07;100.00;95947.25;1025891;28;20066;-70
2022/07/30 01:04:43;;;;;;;11.20;6.13;;;;;;;15.06;100.00;95948.34;1029358;28;20582;-70
2022/07/30 01:05:14;;;;;;;7.68;5.97;;;;;;;15.00;100.00;95936.25;1032779;28;20026;-70
2022/07/30 01:05:45;;;;;;;6.57;5.93;;;;;;;15.04;100.00;95951.25;1030133;28;20133;-70
2022/07/30 01:06:15;;;;;;;9.43;6.43;;;;;;;15.03;100.00;95948.91;1029756;28;20026;-70
2022/07/30 01:06:46;;;;;;;8.57;6.53;;;;;;;15.00;100.00;95947.63;1026148;28;20026;-69
2022/07/30 01:07:16;;;;;;;6.35;5.75;;;;;;;14.92;100.00;95935.03;1030212;28;20122;-69
2022/07/30 01:07:46;;;;;;;7.13;6.43;;;;;;;14.96;100.00;95951.13;1025935;28;20045;-70
2022/07/30 01:08:17;;;;;;;8.60;6.30;;;;;;;14.96;100.00;95951.13;1022108;28;20047;-70
2022/07/30 01:08:47;;;;;;;10.00;6.70;;;;;;;14.95;100.00;95945.03;1025975;28;20461;-70
2022/07/30 01:09:18;;;;;;;7.95;5.70;;;;;;;14.95;100.00;95946.88;1026143;28;20037;-70
2022/07/30 01:09:48;;;;;;;7.68;5.93;;;;;;;14.93;100.00;95946.41;1026052;28;20038;-70
2022/07/30 01:10:19;;;;;;;7.97;6.88;;;;;;;14.93;100.00;95943.75;1025972;28;20035;-69
2022/07/30 01:10:49;;;;;;;8.23;6.85;;;;;;;14.92;100.00;95944.81;1030051;28;20427;-69
2022/07/30 01:11:21;;;;;;;7.68;5.93;;;;;;;14.91;100.00;95951.19;1024672;28;20018;-70
2022/07/30 01:11:51;;;;;;;7.43;6.45;;;;;;;14.90;100.00;95947.75;1022051;28;20041;-71
2022/07/30 01:12:23;;;;;;;7.32;6.20;;;;;;;14.89;100.00;95945.38;1014315;29;20027;-70
2022/07/30 01:12:53;;;;;;;6.93;6.18;;;;;;;14.82;100.00;95938.63;1015336;29;20039;-70
2022/07/30 01:13:24;;;;;;;7.72;6.55;;;;;;;14.85;100.00;95945.97;1014612;29;20039;-69
2022/07/30 01:13:54;;;;;;;8.50;5.97;;;;;;;14.83;100.00;95942.03;1022520;28;20094;-69
2022/07/30 01:14:25;;;;;;;8.95;6.03;;;;;;;14.84;100.00;95944.38;1021952;29;20583;-69
2022/07/30 01:14:56;;;;;;;8.50;6.57;;;;;;;14.85;100.00;95948.63;1017835;29;20122;-69
2022/07/30 01:15:27;;;;;;;12.40;6.40;;;;;;;14.84;100.00;95947.03;1022129;28;20905;-69
2022/07/30 01:15:58;;;;;;;8.10;6.03;;;;;;;14.83;100.00;95950.75;1026009;28;20065;-69
2022/07/30 01:16:28;;;;;;;8.93;7.13;;;;;;;14.82;100.00;95941.25;1022496;29;20134;-69
2022/07/30 01:16:59;;;;;;;9.90;7.45;;;;;;;14.84;100.00;95948.88;1022686;29;20152;-70
2022/07/30 01:17:29;;;;;;;7.10;6.45;;;;;;;14.76;100.00;95934.47;1018896;29;20042;-70
2022/07/30 01:18:02;;;;;;;8.32;6.68;;;;;;;14.79;100.00;95944.47;1019056;28;20054;-70
2022/07/30 01:20:16;;;;;;;6.28;5.60;;;;;;;14.82;100.00;95938.63;1027618;28;20023;-69
2022/07/30 01:21:00;;;;;;;7.40;6.30;;;;;;;14.74;100.00;95927.88;1029045;28;20026;-69
2022/07/30 01:21:35;;;;;;;7.80;6.25;;;;;;;14.80;100.00;95935.47;1026644;28;20125;-70
2022/07/30 01:22:15;;;;;;;9.73;7.03;;;;;;;14.75;100.00;95934.72;1022509;28;20015;-70
2022/07/30 01:23:07;;;;;;;7.60;6.63;;;;;;;14.77;100.00;95938.66;1018637;29;20063;-70
2022/07/30 01:23:41;;;;;;;9.07;5.28;;;;;;;14.78;100.00;95940.22;1022578;28;20035;-69
2022/07/30 01:24:26;;;;;;;6.45;5.25;;;;;;;14.77;100.00;95951.88;1022805;29;20031;-69
2022/07/30 01:25:02;;;;;;;9.00;6.25;;;;;;;14.76;100.00;95942.38;1022457;29;20027;-70
2022/07/30 01:25:47;;;;;;;7.25;6.00;;;;;;;14.74;100.00;95949.78;1025786;28;20516;-70
2022/07/30 01:26:18;;;;;;;6.93;5.60;;;;;;;14.72;100.00;95941.38;1030818;28;20046;-70
2022/07/30 01:26:48;;;;;;;7.10;5.90;;;;;;;14.71;100.00;95946.94;1029550;28;20030;-70
2022/07/30 01:27:19;;;;;;;6.57;5.57;;;;;;;14.71;100.00;95939.78;1030468;28;20018;-69
2022/07/30 01:27:52;;;;;;;6.90;6.20;;;;;;;14.70;100.00;95942.72;1022802;29;20082;-69
2022/07/30 01:28:27;;;;;;;10.70;6.72;;;;;;;14.72;100.00;95945.84;1022869;29;20074;-70
2022/07/30 01:28:58;;;;;;;6.25;5.60;;;;;;;14.71;100.00;95949.56;1018567;29;20055;-70
2022/07/30 01:29:28;;;;;;;6.32;5.80;;;;;;;14.71;100.00;95945.06;1026729;28;20026;-69
2022/07/30 01:30:00;;;;;;;6.75;6.13;;;;;;;14.69;100.00;95933.22;1022708;29;20035;-70
2022/07/30 01:30:33;;;;;;;7.35;5.82;;;;;;;14.71;100.00;95939.78;1023472;28;20452;-70
2022/07/30 01:31:03;;;;;;;8.07;7.10;;;;;;;14.71;100.00;95939.78;1022077;29;20686;-69
2022/07/30 01:31:34;;;;;;;9.20;5.40;;;;;;;14.70;100.00;95932.94;1019688;28;20028;-69
2022/07/30 01:32:06;;;;;;;10.30;5.93;;;;;;;14.69;100.00;95930.56;1022552;29;20034;-70
2022/07/30 01:32:39;;;;;;;9.50;6.07;;;;;;;14.65;100.00;95919.00;1022976;28;20797;-69
2022/07/30 01:33:11;;;;;;;6.50;5.57;;;;;;;14.72;100.00;95930.00;1022822;29;20558;-70
2022/07/30 01:33:43;;;;;;;6.80;6.20;;;;;;;14.59;100.00;95913.03;1024153;28;20039;-68
2022/07/30 01:34:14;;;;;;;7.53;5.97;;;;;;;14.72;100.00;95936.09;1026818;28;20651;-70
2022/07/30 01:34:44;;;;;;;6.95;5.35;;;;;;;14.69;100.00;95931.38;1027017;28;20035;-70
2022/07/30 01:35:15;;;;;;;7.15;6.20;;;;;;;14.69;100.00;95925.28;1030862;28;20660;-70
2022/07/30 01:35:46;;;;;;;8.38;5.65;;;;;;;14.69;100.00;95931.38;1022824;28;20183;-69
2022/07/30 01:36:17;;;;;;;6.10;5.50;;;;;;;14.72;100.00;95937.94;1023059;29;20027;-71
2022/07/30 01:36:47;;;;;;;9.43;6.13;;;;;;;14.66;100.00;95921.38;1026932;28;20050;-69
2022/07/30 01:37:18;;;;;;;9.55;5.40;;;;;;;14.71;100.00;95933.72;1022614;28;20095;-70
2022/07/30 01:37:48;;;;;;;6.60;5.95;;;;;;;14.71;100.00;95934.50;1022807;28;20031;-70
2022/07/30 01:38:21;;;;;;;6.32;5.72;;;;;;;14.70;100.00;95938.22;1018905;29;20032;-69
2022/07/30 01:38:52;;;;;;;6.47;5.88;;;;;;;14.70;100.00;95938.22;1022370;29;20030;-70
2022/07/30 01:39:22;;;;;;;10.10;5.85;;;;;;;14.68;100.00;95932.44;1019108;29;20118;-70
2022/07/30 01:39:53;;;;;;;9.13;6.80;;;;;;;14.67;100.00;95938.78;1019143;29;20539;-69
2022/07/30 01:40:24;;;;;;;7.05;6.32;;;;;;;14.66;100.00;95931.94;1022754;29;20035;-69
2022/07/30 01:40:54;;;;;;;7.65;6.15;;;;;;;14.66;100.00;95937.22;1025940;28;20023;-70
2022/07/30 01:41:25;;;;;;;7.38;6.22;;;;;;;14.65;100.00;95934.84;1025737;28;20480;-70
2022/07/30 01:41:56;;;;;;;7.43;5.57;;;;;;;14.62;100.00;95933.59;1026566;28;20089;-70
2022/07/30 01:42:27;;;;;;;6.15;5.43;;;;;;;14.63;100.00;95927.22;1026595;28;20101;-70
2022/07/30 01:42:58;;;;;;;7.22;6.50;;;;;;;14.67;100.00;95943.28;1026599;28;20058;-70
2022/07/30 01:43:29;;;;;;;6.47;5.88;;;;;;;14.64;100.00;95934.06;1026653;28;20031;-69
2022/07/30 01:43:59;;;;;;;7.05;6.05;;;;;;;14.65;100.00;95946.19;1026373;28;20086;-70
2022/07/30 01:44:30;;;;;;;6.68;5.90;;;;;;;14.65;100.00;95940.91;1026716;28;20040;-69
2022/07/30 01:45:00;;;;;;;7.68;5.30;;;;;;;14.64;100.00;95939.34;1026484;28;20033;-70
2022/07/30 01:45:31;;;;;;;7.07;6.38;;;;;;;14.65;100.00;95940.13;1026694;28;20030;-70
2022/07/30 01:46:02;;;;;;;6.75;6.15;;;;;;;14.65;100.00;95945.41;1022279;29;20034;-70
2022/07/30 01:46:32;;;;;;;7.15;6.28;;;;;;;14.61;100.00;95937.28;1026660;28;20046;-70
2022/07/30 01:47:03;;;;;;;6.20;5.55;;;;;;;14.60;100.00;95944.41;1026635;28;20538;-70
2022/07/30 01:47:34;;;;;;;6.78;5.80;;;;;;;14.60;100.00;95947.06;1026496;28;20802;-69
2022/07/30 01:48:05;;;;;;;6.03;5.40;;;;;;;14.58;100.00;95940.47;1024107;28;20027;-70
2022/07/30 01:48:39;;;;;;;8.07;5.72;;;;;;;14.61;100.00;95953.91;1026576;28;20098;-69
2022/07/30 01:49:09;;;;;;;6.20;5.70;;;;;;;14.61;100.00;95945.19;1026393;28;20081;-70
2022/07/30 01:49:40;;;;;;;7.18;6.20;;;;;;;14.60;100.00;95944.41;1026701;28;20031;-70
2022/07/30 01:50:14;;;;;;;7.38;6.68;;;;;;;14.56;100.00;95942.63;1018403;29;20031;-69
2022/07/30 01:50:45;;;;;;;8.85;6.88;;;;;;;14.57;100.00;95941.56;1018750;29;20705;-70
2022/07/30 01:51:16;;;;;;;9.68;6.20;;;;;;;14.57;100.00;95946.84;1022000;29;20025;-69
2022/07/30 01:51:46;;;;;;;9.35;6.15;;;;;;;14.52;100.00;95938.97;1023938;28;20073;-69
2022/07/30 01:52:17;;;;;;;6.85;5.95;;;;;;;14.58;100.00;95949.19;1030589;28;20467;-70
2022/07/30 01:52:49;;;;;;;8.50;5.70;;;;;;;14.60;100.00;95943.63;1030499;28;20026;-70
2022/07/30 01:53:24;;;;;;;8.02;6.60;;;;;;;14.58;100.00;95943.13;1023006;28;20043;-69
2022/07/30 01:53:54;;;;;;;6.82;6.13;;;;;;;14.57;100.00;95944.19;1025711;28;20034;-70
2022/07/30 01:54:25;;;;;;;7.53;5.90;;;;;;;14.51;100.00;95932.91;1026416;28;20035;-70
2022/07/30 01:54:55;;;;;;;10.85;7.13;;;;;;;14.56;100.00;95943.41;1023269;28;20043;-69
2022/07/30 01:55:29;;;;;;;8.38;6.88;;;;;;;14.54;100.00;95948.19;1026737;28;20125;-70
2022/07/30 01:55:59;;;;;;;7.07;6.38;;;;;;;14.54;100.00;95944.75;1021936;28;20613;-70
2022/07/30 01:56:30;;;;;;;6.80;6.18;;;;;;;14.51;100.00;95940.81;1018613;29;20027;-69
2022/07/30 01:57:00;;;;;;;11.23;6.63;;;;;;;14.55;100.00;95946.31;1022516;29;20755;-70
2022/07/30 01:57:31;;;;;;;9.63;6.38;;;;;;;14.51;100.00;95940.81;1026586;28;20034;-69
2022/07/30 01:58:02;;;;;;;12.52;6.05;;;;;;;14.52;100.00;95936.31;1022526;29;20034;-70
2022/07/30 01:58:35;;;;;;;7.03;6.28;;;;;;;14.55;100.00;95943.69;1022493;29;20070;-69
2022/07/30 01:59:05;;;;;;;7.90;6.22;;;;;;;14.48;100.00;95933.44;1022529;29;20035;-69
2022/07/30 01:59:36;;;;;;;8.35;6.13;;;;;;;14.53;100.00;95948.47;1025523;28;20484;-69
2022/07/30 02:00:07;;;;;;;8.50;6.85;;;;;;;14.53;100.00;95951.13;1018946;28;20043;-69
2022/07/30 02:00:39;;;;;;;11.02;6.45;;;;;;;14.49;100.00;95944.81;1022723;28;20031;-70
2022/07/30 02:01:09;;;;;;;8.23;6.85;;;;;;;14.50;100.00;95943.72;1019982;29;20038;-69
2022/07/30 02:01:40;;;;;;;8.85;6.88;;;;;;;14.50;100.00;95943.72;1019066;29;20477;-69
2022/07/30 02:02:11;;;;;;;10.65;7.88;;;;;;;14.48;100.00;95936.06;1022619;29;20031;-69
2022/07/30 02:02:41;;;;;;;8.18;6.53;;;;;;;14.46;100.00;95943.50;1023014;28;20027;-72
2022/07/30 02:03:11;;;;;;;7.57;6.55;;;;;;;14.45;100.00;95941.13;1022766;28;20093;-69
2022/07/30 02:03:42;;;;;;;9.32;7.43;;;;;;;14.45;100.00;95943.78;1026764;28;20034;-70
2022/07/30 02:04:13;;;;;;;7.30;6.00;;;;;;;14.44;100.00;95939.56;1026562;28;20066;-69
2022/07/30 02:04:43;;;;;;;11.05;7.13;;;;;;;14.42;100.00;95936.41;1025846;28;20035;-69
2022/07/30 02:05:14;;;;;;;15.65;7.68;;;;;;;14.42;100.00;95941.69;1026400;28;20105;-69
2022/07/30 02:05:49;;;;;;;9.15;6.93;;;;;;;14.36;100.00;95933.84;1022808;29;20046;-69
2022/07/30 02:06:25;;;;;;;9.00;7.50;;;;;;;14.36;100.00;95939.13;1015319;29;20537;-69
2022/07/30 02:07:01;;;;;;;8.43;7.43;;;;;;;14.35;100.00;95945.47;1016142;29;20024;-69
2022/07/30 02:07:41;;;;;;;9.52;7.10;;;;;;;14.34;100.00;95937.81;1024768;28;20031;-69
2022/07/30 02:08:34;;;;;;;6.95;6.25;;;;;;;14.34;100.00;95935.97;1029180;28;20022;-69
2022/07/30 02:09:05;;;;;;;7.57;6.53;;;;;;;14.35;100.00;95940.19;1030551;28;20037;-69
2022/07/30 02:09:39;;;;;;;9.77;6.18;;;;;;;14.29;100.00;95933.41;1030614;28;20076;-69
2022/07/30 02:10:29;;;;;;;7.97;6.38;;;;;;;14.36;100.00;95939.13;1019153;29;20448;-69
2022/07/30 02:11:11;;;;;;;7.50;6.80;;;;;;;14.33;100.00;95939.69;1025603;28;20030;-69
2022/07/30 02:12:35;;;;;;;9.63;7.55;;;;;;;14.32;100.00;95943.41;1026586;28;20492;-69
2022/07/30 02:13:06;;;;;;;7.65;6.85;;;;;;;14.31;100.00;95930.47;1026073;28;20092;-70
2022/07/30 02:13:44;;;;;;;9.23;6.60;;;;;;;14.33;100.00;95937.03;1023914;28;20042;-71
2022/07/30 02:14:20;;;;;;;7.38;6.57;;;;;;;14.39;100.00;95943.84;1023558;28;20026;-70
2022/07/30 02:15:00;;;;;;;10.05;6.82;;;;;;;14.41;100.00;95940.13;1034133;28;20116;-71
2022/07/30 02:15:39;;;;;;;8.43;6.97;;;;;;;14.38;100.00;95937.00;1018560;28;20109;-69
2022/07/30 02:16:25;;;;;;;9.25;7.00;;;;;;;14.42;100.00;95939.06;1020773;29;20063;-68
2022/07/30 02:16:56;;;;;;;8.68;7.15;;;;;;;14.46;100.00;95942.72;1018395;29;20030;-69
2022/07/30 02:17:33;;;;;;;7.88;6.70;;;;;;;14.47;100.00;95947.72;1026531;28;20026;-69
2022/07/30 02:18:12;;;;;;;8.60;6.38;;;;;;;14.47;100.00;95928.44;1028366;28;20027;-70
2022/07/30 02:18:55;;;;;;;8.02;6.90;;;;;;;14.54;100.00;95940.25;1026399;28;20029;-69
2022/07/30 02:19:32;;;;;;;8.23;6.90;;;;;;;14.52;100.00;95942.41;1025763;28;20603;-69
2022/07/30 02:20:03;;;;;;;8.73;7.70;;;;;;;14.58;100.00;95940.47;1013944;29;20020;-70
2022/07/30 02:20:33;;;;;;;8.30;7.35;;;;;;;14.59;100.00;95942.06;1023154;28;20030;-70
2022/07/30 02:21:05;;;;;;;8.60;7.72;;;;;;;14.61;100.00;95947.84;1021957;29;20030;-69
2022/07/30 02:21:42;;;;;;;10.63;7.22;;;;;;;14.53;100.00;95927.34;1022493;28;20031;-69
2022/07/30 02:22:14;;;;;;;7.50;6.72;;;;;;;14.59;100.00;95942.06;1019075;29;20849;-69
2022/07/30 02:22:45;;;;;;;9.32;6.82;;;;;;;14.62;100.00;95946.78;1010813;29;20079;-69
2022/07/30 02:23:15;;;;;;;8.65;7.53;;;;;;;14.55;100.00;95933.13;1011630;29;20047;-71
2022/07/30 02:23:46;;;;;;;9.55;7.00;;;;;;;14.63;100.00;95947.56;1019041;28;20122;-69
2022/07/30 02:24:20;;;;;;;7.75;6.95;;;;;;;14.62;100.00;95938.88;1022708;28;20805;-69
2022/07/30 02:24:51;;;;;;;7.10;6.50;;;;;;;14.64;100.00;95942.00;1014614;29;20521;-69
2022/07/30 02:25:21;;;;;;;7.20;6.50;;;;;;;14.64;100.00;95936.72;1010525;29;20025;-69
2022/07/30 02:25:52;;;;;;;8.00;6.53;;;;;;;14.58;100.00;95935.19;1015194;29;20020;-69
2022/07/30 02:26:22;;;;;;;7.60;6.80;;;;;;;14.64;100.00;95943.84;1018820;28;20028;-70
2022/07/30 02:26:58;;;;;;;9.82;7.82;;;;;;;14.61;100.00;95934.63;1018431;29;20019;-72
2022/07/30 02:27:30;;;;;;;10.05;6.85;;;;;;;14.66;100.00;95942.50;1010530;29;20043;-70
2022/07/30 02:28:06;;;;;;;7.30;6.47;;;;;;;14.66;100.00;95941.72;1022415;29;20668;-69
2022/07/30 02:28:38;;;;;;;7.82;5.90;;;;;;;14.68;100.00;95950.94;1022514;28;20034;-70
2022/07/30 02:29:08;;;;;;;8.90;6.75;;;;;;;14.67;100.00;95945.94;1022504;29;20035;-69
2022/07/30 02:29:39;;;;;;;9.13;6.25;;;;;;;14.70;100.00;95948.78;1022404;29;20055;-69
2022/07/30 02:30:10;;;;;;;7.40;6.43;;;;;;;14.69;100.00;95947.22;1019355;29;20031;-70
2022/07/30 02:30:47;;;;;;;6.97;6.28;;;;;;;14.66;100.00;95947.78;1013801;29;20119;-70